HETCH HETCHY (HTH)

Elevation: 3870' · TUOLUMNE R basin · Operator: Hetch Hetchy Water and Power

Provisional data, subject to change.
Query executed Saturday at 13:05:43   clock

Select a sensor type for a plot of data.
Note: Reservoir Flows are daily averages.

Earlier

Date RES ELE    STORAGE    RES CHG    OUTFLOW    INFLOW    PPT INC    RAIN    PPTINC4   
 FEET   AF   AF   CFS   CFS   INCHES   INCHES   INCHES  
04/29/2016 -- 281986 -- 2035 -- 0.00 37.97 0.00
04/30/2016 -- 280538 -- 2318 -- 0.00 37.97 0.02
05/01/2016 -- 278910 -1628 2315 -- 0.00 37.97 0.00
05/02/2016 -- 277650 e -1260 2323 -- 0.04 38.01 0.08
05/03/2016 -- 276390 -1260 2328 -- 0.00 38.01 0.00
05/04/2016 -- 276210 -- 2270 -- 0.00 38.01 0.00
05/05/2016 -- 276750 -- 2292 -- 0.00 38.01 0.00
05/06/2016 -- 277110 -- 2290 -- 0.00 38.01 0.06
05/07/2016 -- 277110 -- 2284 -- 0.05 38.06 0.20
05/08/2016 -- 277110 -- 2303 -- 0.07 38.13 0.18
05/09/2016 -- 274058 -- 3560 -- 0.00 38.13 0.00
05/10/2016 -- 269432 -- 5434 -- 0.00 38.13 0.00
05/11/2016 -- 262555 -- 7019 -- 0.00 38.13 0.00
05/12/2016 -- 257482 -- 7605 -- 0.00 38.13 0.00
05/13/2016 -- 255046 -- 6472 -- 0.00 38.13 0.00
05/14/2016 -- 256786 -- 5186 -- 0.00 38.13 0.00
05/15/2016 -- 260280 -- 4247 -- 0.00 38.13 0.00
05/16/2016 -- 262905 -- 3609 -- 0.00 38.13 0.00
05/17/2016 -- 265544 -- 3160 -- 0.07 38.20 0.01
05/18/2016 -- 268193 -- 3084 -- 0.00 38.20 0.00
05/19/2016 -- 271208 -- 3239 -- 0.00 38.20 0.00
05/20/2016 -- 271208 -- 3083 -- 0.00 38.20 0.00
05/21/2016 -- 377830 -- 3091 -- 0.00 38.20 0.00
05/22/2016 -- 276750 -- 3097 -- 0.10 38.30 0.02
05/23/2016 -- 275311 -- 2712 -- 0.00 38.30 0.00
05/24/2016 -- 274774 -- 2356 -- 0.00 38.30 0.03
05/25/2016 -- 274595 -- 2118 -- 0.04 38.34 0.06
05/26/2016 -- 274774 -- 1910 -- 0.03 38.37 0.04
05/27/2016 -- -- -- -- -- 0.01 38.38 0.01
05/28/2016 -- -- -- -- -- -- -- 0.01

Later | Latest

Warning! This data is preliminary and subject to revision.

Show HTH Map | Plot HTH Data | 1 Month HTH Data | Real-Time HTH Data | HTH Info